sensor_id;sensor_type;location;lat;lon;timestamp;P1;durP1;ratioP1;P2;durP2;ratioP2
51764;SDS011;37835;53.256;6.456;2022-07-22T00:00:21;11.70;;;2.83;;
51764;SDS011;37835;53.256;6.456;2022-07-22T00:02:47;13.93;;;3.35;;
51764;SDS011;37835;53.256;6.456;2022-07-22T00:05:12;17.85;;;3.00;;
51764;SDS011;37835;53.256;6.456;2022-07-22T00:07:38;9.93;;;3.17;;
51764;SDS011;37835;53.256;6.456;2022-07-22T00:10:05;9.65;;;2.72;;
51764;SDS011;37835;53.256;6.456;2022-07-22T00:12:32;11.43;;;2.47;;
51764;SDS011;37835;53.256;6.456;2022-07-22T00:14:58;10.32;;;1.98;;
51764;SDS011;37835;53.256;6.456;2022-07-22T00:17:23;13.43;;;2.85;;
51764;SDS011;37835;53.256;6.456;2022-07-22T00:19:49;10.07;;;2.30;;
51764;SDS011;37835;53.256;6.456;2022-07-22T00:22:15;13.20;;;2.50;;
51764;SDS011;37835;53.256;6.456;2022-07-22T00:24:40;9.85;;;1.92;;
51764;SDS011;37835;53.256;6.456;2022-07-22T00:27:06;19.40;;;2.40;;
51764;SDS011;37835;53.256;6.456;2022-07-22T00:29:31;12.80;;;2.42;;
51764;SDS011;37835;53.256;6.456;2022-07-22T00:31:57;9.40;;;2.42;;
51764;SDS011;37835;53.256;6.456;2022-07-22T00:34:23;9.52;;;2.50;;
51764;SDS011;37835;53.256;6.456;2022-07-22T00:36:48;9.13;;;2.13;;
51764;SDS011;37835;53.256;6.456;2022-07-22T00:39:14;11.07;;;3.08;;
51764;SDS011;37835;53.256;6.456;2022-07-22T00:41:40;9.30;;;2.60;;
51764;SDS011;37835;53.256;6.456;2022-07-22T00:44:07;10.35;;;1.92;;
51764;SDS011;37835;53.256;6.456;2022-07-22T00:46:33;9.90;;;2.15;;
51764;SDS011;37835;53.256;6.456;2022-07-22T00:49:00;7.85;;;2.10;;
51764;SDS011;37835;53.256;6.456;2022-07-22T00:51:27;10.00;;;2.20;;
51764;SDS011;37835;53.256;6.456;2022-07-22T00:53:54;12.70;;;2.08;;
51764;SDS011;37835;53.256;6.456;2022-07-22T00:56:21;7.93;;;1.70;;
51764;SDS011;37835;53.256;6.456;2022-07-22T00:58:48;8.30;;;2.13;;
51764;SDS011;37835;53.256;6.456;2022-07-22T01:01:15;10.23;;;1.95;;
51764;SDS011;37835;53.256;6.456;2022-07-22T01:03:41;8.68;;;1.88;;
51764;SDS011;37835;53.256;6.456;2022-07-22T01:06:07;5.68;;;1.55;;
51764;SDS011;37835;53.256;6.456;2022-07-22T01:08:33;11.98;;;1.77;;
51764;SDS011;37835;53.256;6.456;2022-07-22T01:11:06;6.32;;;1.58;;
51764;SDS011;37835;53.256;6.456;2022-07-22T01:13:32;9.65;;;1.92;;
51764;SDS011;37835;53.256;6.456;2022-07-22T01:15:58;5.00;;;1.63;;
51764;SDS011;37835;53.256;6.456;2022-07-22T01:18:23;8.98;;;1.70;;
51764;SDS011;37835;53.256;6.456;2022-07-22T01:20:49;12.52;;;2.10;;
51764;SDS011;37835;53.256;6.456;2022-07-22T01:23:14;6.70;;;1.52;;
51764;SDS011;37835;53.256;6.456;2022-07-22T01:25:40;11.75;;;2.13;;
51764;SDS011;37835;53.256;6.456;2022-07-22T01:28:06;5.97;;;1.65;;
51764;SDS011;37835;53.256;6.456;2022-07-22T01:30:31;6.93;;;1.70;;
51764;SDS011;37835;53.256;6.456;2022-07-22T01:32:57;10.68;;;1.88;;
51764;SDS011;37835;53.256;6.456;2022-07-22T01:35:22;6.88;;;1.75;;
51764;SDS011;37835;53.256;6.456;2022-07-22T01:37:48;8.00;;;1.67;;
51764;SDS011;37835;53.256;6.456;2022-07-22T01:40:13;13.90;;;2.20;;
51764;SDS011;37835;53.256;6.456;2022-07-22T01:42:39;6.97;;;1.85;;
51764;SDS011;37835;53.256;6.456;2022-07-22T01:45:05;6.63;;;2.00;;
51764;SDS011;37835;53.256;6.456;2022-07-22T01:47:31;10.80;;;1.92;;
51764;SDS011;37835;53.256;6.456;2022-07-22T01:49:57;6.50;;;1.70;;
51764;SDS011;37835;53.256;6.456;2022-07-22T01:52:23;11.07;;;1.45;;
51764;SDS011;37835;53.256;6.456;2022-07-22T01:54:48;5.88;;;1.63;;
51764;SDS011;37835;53.256;6.456;2022-07-22T01:57:14;8.15;;;1.65;;
51764;SDS011;37835;53.256;6.456;2022-07-22T01:59:39;6.90;;;1.65;;
51764;SDS011;37835;53.256;6.456;2022-07-22T02:02:05;12.57;;;1.60;;
51764;SDS011;37835;53.256;6.456;2022-07-22T02:04:30;10.63;;;2.15;;
51764;SDS011;37835;53.256;6.456;2022-07-22T02:06:56;8.15;;;1.67;;
51764;SDS011;37835;53.256;6.456;2022-07-22T02:09:21;8.43;;;1.90;;
51764;SDS011;37835;53.256;6.456;2022-07-22T02:11:47;9.13;;;1.60;;
51764;SDS011;37835;53.256;6.456;2022-07-22T02:14:13;5.95;;;1.42;;
51764;SDS011;37835;53.256;6.456;2022-07-22T02:16:38;9.23;;;1.60;;
51764;SDS011;37835;53.256;6.456;2022-07-22T02:19:04;8.93;;;1.27;;
51764;SDS011;37835;53.256;6.456;2022-07-22T02:21:30;10.23;;;1.70;;
51764;SDS011;37835;53.256;6.456;2022-07-22T02:23:55;6.03;;;1.90;;
51764;SDS011;37835;53.256;6.456;2022-07-22T02:26:21;8.05;;;1.67;;
51764;SDS011;37835;53.256;6.456;2022-07-22T02:28:46;7.18;;;1.40;;
51764;SDS011;37835;53.256;6.456;2022-07-22T02:31:12;5.35;;;1.42;;
51764;SDS011;37835;53.256;6.456;2022-07-22T02:33:38;9.57;;;1.58;;
51764;SDS011;37835;53.256;6.456;2022-07-22T02:36:04;6.38;;;1.30;;
51764;SDS011;37835;53.256;6.456;2022-07-22T02:38:29;4.32;;;1.30;;
51764;SDS011;37835;53.256;6.456;2022-07-22T02:40:55;4.80;;;1.60;;
51764;SDS011;37835;53.256;6.456;2022-07-22T02:43:20;8.05;;;1.25;;
51764;SDS011;37835;53.256;6.456;2022-07-22T02:45:46;5.55;;;1.33;;
51764;SDS011;37835;53.256;6.456;2022-07-22T02:48:12;5.93;;;1.40;;
51764;SDS011;37835;53.256;6.456;2022-07-22T02:50:37;6.65;;;1.42;;
51764;SDS011;37835;53.256;6.456;2022-07-22T02:53:04;5.85;;;2.03;;
51764;SDS011;37835;53.256;6.456;2022-07-22T02:55:29;7.70;;;1.27;;
51764;SDS011;37835;53.256;6.456;2022-07-22T02:57:55;5.28;;;1.40;;
51764;SDS011;37835;53.256;6.456;2022-07-22T03:00:21;6.68;;;1.40;;
51764;SDS011;37835;53.256;6.456;2022-07-22T03:02:46;5.60;;;1.65;;
51764;SDS011;37835;53.256;6.456;2022-07-22T03:05:12;6.32;;;1.42;;
51764;SDS011;37835;53.256;6.456;2022-07-22T03:07:37;6.68;;;1.30;;
51764;SDS011;37835;53.256;6.456;2022-07-22T03:10:04;9.05;;;1.60;;
51764;SDS011;37835;53.256;6.456;2022-07-22T03:12:29;7.93;;;1.63;;
51764;SDS011;37835;53.256;6.456;2022-07-22T03:14:55;6.20;;;1.55;;
51764;SDS011;37835;53.256;6.456;2022-07-22T03:17:21;3.45;;;1.40;;
51764;SDS011;37835;53.256;6.456;2022-07-22T03:19:46;7.72;;;1.40;;
51764;SDS011;37835;53.256;6.456;2022-07-22T03:22:12;8.27;;;1.45;;
51764;SDS011;37835;53.256;6.456;2022-07-22T03:24:38;8.95;;;1.60;;
51764;SDS011;37835;53.256;6.456;2022-07-22T03:27:04;8.80;;;1.58;;
51764;SDS011;37835;53.256;6.456;2022-07-22T03:29:30;6.38;;;1.85;;
51764;SDS011;37835;53.256;6.456;2022-07-22T03:31:55;9.55;;;1.60;;
51764;SDS011;37835;53.256;6.456;2022-07-22T03:34:21;8.50;;;1.85;;
51764;SDS011;37835;53.256;6.456;2022-07-22T03:36:46;9.43;;;1.70;;
51764;SDS011;37835;53.256;6.456;2022-07-22T03:39:12;6.47;;;1.38;;
51764;SDS011;37835;53.256;6.456;2022-07-22T03:41:38;9.05;;;1.90;;
51764;SDS011;37835;53.256;6.456;2022-07-22T03:44:03;6.90;;;1.85;;
51764;SDS011;37835;53.256;6.456;2022-07-22T03:46:29;9.57;;;1.45;;
51764;SDS011;37835;53.256;6.456;2022-07-22T03:48:54;7.85;;;1.33;;
51764;SDS011;37835;53.256;6.456;2022-07-22T03:51:20;7.30;;;1.70;;
51764;SDS011;37835;53.256;6.456;2022-07-22T03:53:45;6.45;;;1.40;;
51764;SDS011;37835;53.256;6.456;2022-07-22T03:56:11;7.05;;;1.73;;
51764;SDS011;37835;53.256;6.456;2022-07-22T03:58:37;5.80;;;1.70;;
51764;SDS011;37835;53.256;6.456;2022-07-22T04:01:02;6.20;;;1.33;;
51764;SDS011;37835;53.256;6.456;2022-07-22T04:03:28;8.23;;;1.60;;
51764;SDS011;37835;53.256;6.456;2022-07-22T04:05:54;6.68;;;1.70;;
51764;SDS011;37835;53.256;6.456;2022-07-22T04:08:19;9.57;;;1.50;;
51764;SDS011;37835;53.256;6.456;2022-07-22T04:10:45;8.50;;;1.55;;
51764;SDS011;37835;53.256;6.456;2022-07-22T04:13:11;7.72;;;1.50;;
51764;SDS011;37835;53.256;6.456;2022-07-22T04:15:36;9.10;;;1.65;;
51764;SDS011;37835;53.256;6.456;2022-07-22T04:18:02;7.50;;;1.75;;
51764;SDS011;37835;53.256;6.456;2022-07-22T04:20:28;6.25;;;1.27;;
51764;SDS011;37835;53.256;6.456;2022-07-22T04:22:54;9.02;;;1.85;;
51764;SDS011;37835;53.256;6.456;2022-07-22T04:25:21;4.25;;;1.65;;
51764;SDS011;37835;53.256;6.456;2022-07-22T04:27:46;10.90;;;1.67;;
51764;SDS011;37835;53.256;6.456;2022-07-22T04:30:12;5.95;;;1.50;;
51764;SDS011;37835;53.256;6.456;2022-07-22T04:32:37;5.38;;;1.15;;
51764;SDS011;37835;53.256;6.456;2022-07-22T04:35:03;6.45;;;1.38;;
51764;SDS011;37835;53.256;6.456;2022-07-22T04:37:30;6.93;;;1.40;;
51764;SDS011;37835;53.256;6.456;2022-07-22T04:39:55;4.60;;;1.40;;
51764;SDS011;37835;53.256;6.456;2022-07-22T04:42:21;5.90;;;1.33;;
51764;SDS011;37835;53.256;6.456;2022-07-22T04:44:46;10.93;;;1.30;;
51764;SDS011;37835;53.256;6.456;2022-07-22T04:47:12;10.05;;;1.63;;
51764;SDS011;37835;53.256;6.456;2022-07-22T04:49:38;6.95;;;1.52;;
51764;SDS011;37835;53.256;6.456;2022-07-22T04:52:03;4.38;;;1.13;;
51764;SDS011;37835;53.256;6.456;2022-07-22T04:54:29;4.03;;;1.05;;
51764;SDS011;37835;53.256;6.456;2022-07-22T04:56:55;4.18;;;1.10;;
51764;SDS011;37835;53.256;6.456;2022-07-22T04:59:20;6.95;;;1.23;;
51764;SDS011;37835;53.256;6.456;2022-07-22T05:01:46;9.25;;;1.13;;
51764;SDS011;37835;53.256;6.456;2022-07-22T05:04:11;3.05;;;0.90;;
51764;SDS011;37835;53.256;6.456;2022-07-22T05:06:37;5.32;;;1.48;;
51764;SDS011;37835;53.256;6.456;2022-07-22T05:09:03;7.18;;;1.20;;
51764;SDS011;37835;53.256;6.456;2022-07-22T05:11:29;5.32;;;1.00;;
51764;SDS011;37835;53.256;6.456;2022-07-22T05:13:54;5.05;;;1.35;;
51764;SDS011;37835;53.256;6.456;2022-07-22T05:16:20;4.90;;;1.30;;
51764;SDS011;37835;53.256;6.456;2022-07-22T05:18:46;5.20;;;1.25;;
51764;SDS011;37835;53.256;6.456;2022-07-22T05:21:11;5.38;;;1.42;;
51764;SDS011;37835;53.256;6.456;2022-07-22T05:23:37;6.38;;;1.42;;
51764;SDS011;37835;53.256;6.456;2022-07-22T05:26:04;3.33;;;1.20;;
51764;SDS011;37835;53.256;6.456;2022-07-22T05:28:30;4.75;;;1.30;;
51764;SDS011;37835;53.256;6.456;2022-07-22T05:30:56;5.03;;;1.48;;
51764;SDS011;37835;53.256;6.456;2022-07-22T05:33:21;3.38;;;0.95;;
51764;SDS011;37835;53.256;6.456;2022-07-22T05:35:47;7.35;;;1.48;;
51764;SDS011;37835;53.256;6.456;2022-07-22T05:38:12;5.97;;;1.30;;
51764;SDS011;37835;53.256;6.456;2022-07-22T05:40:38;10.02;;;1.30;;
51764;SDS011;37835;53.256;6.456;2022-07-22T05:43:04;4.57;;;1.10;;
51764;SDS011;37835;53.256;6.456;2022-07-22T05:45:29;11.73;;;1.80;;
51764;SDS011;37835;53.256;6.456;2022-07-22T05:47:55;7.93;;;1.25;;
51764;SDS011;37835;53.256;6.456;2022-07-22T05:50:21;3.97;;;1.17;;
51764;SDS011;37835;53.256;6.456;2022-07-22T05:52:46;11.13;;;1.83;;
51764;SDS011;37835;53.256;6.456;2022-07-22T05:55:12;4.13;;;1.00;;
51764;SDS011;37835;53.256;6.456;2022-07-22T05:57:37;5.32;;;1.20;;
51764;SDS011;37835;53.256;6.456;2022-07-22T06:00:04;5.55;;;1.30;;
51764;SDS011;37835;53.256;6.456;2022-07-22T06:02:31;7.82;;;2.25;;
51764;SDS011;37835;53.256;6.456;2022-07-22T06:04:56;4.05;;;1.17;;
51764;SDS011;37835;53.256;6.456;2022-07-22T06:07:22;4.40;;;0.90;;
51764;SDS011;37835;53.256;6.456;2022-07-22T06:09:47;5.57;;;1.38;;
51764;SDS011;37835;53.256;6.456;2022-07-22T06:12:14;5.40;;;1.30;;
51764;SDS011;37835;53.256;6.456;2022-07-22T06:14:39;4.88;;;1.20;;
51764;SDS011;37835;53.256;6.456;2022-07-22T06:17:05;5.63;;;1.20;;
51764;SDS011;37835;53.256;6.456;2022-07-22T06:19:30;6.25;;;1.38;;
51764;SDS011;37835;53.256;6.456;2022-07-22T06:21:57;2.70;;;1.00;;
51764;SDS011;37835;53.256;6.456;2022-07-22T06:24:23;4.50;;;1.13;;
51764;SDS011;37835;53.256;6.456;2022-07-22T06:26:48;5.43;;;1.20;;
51764;SDS011;37835;53.256;6.456;2022-07-22T06:29:14;3.05;;;1.00;;
51764;SDS011;37835;53.256;6.456;2022-07-22T06:31:40;4.22;;;1.45;;
51764;SDS011;37835;53.256;6.456;2022-07-22T06:34:06;3.75;;;1.00;;
51764;SDS011;37835;53.256;6.456;2022-07-22T06:36:32;5.80;;;1.50;;
51764;SDS011;37835;53.256;6.456;2022-07-22T06:38:57;6.95;;;1.13;;
51764;SDS011;37835;53.256;6.456;2022-07-22T06:41:23;6.22;;;0.85;;
51764;SDS011;37835;53.256;6.456;2022-07-22T06:43:49;4.25;;;1.08;;
51764;SDS011;37835;53.256;6.456;2022-07-22T06:46:15;5.00;;;1.00;;
51764;SDS011;37835;53.256;6.456;2022-07-22T06:48:40;3.50;;;1.30;;
51764;SDS011;37835;53.256;6.456;2022-07-22T06:51:06;5.65;;;0.68;;
51764;SDS011;37835;53.256;6.456;2022-07-22T06:53:32;3.58;;;0.80;;
51764;SDS011;37835;53.256;6.456;2022-07-22T06:55:58;4.68;;;1.13;;
51764;SDS011;37835;53.256;6.456;2022-07-22T06:58:23;5.55;;;1.00;;
51764;SDS011;37835;53.256;6.456;2022-07-22T07:00:49;3.65;;;0.68;;
51764;SDS011;37835;53.256;6.456;2022-07-22T07:03:14;5.15;;;1.15;;
51764;SDS011;37835;53.256;6.456;2022-07-22T07:05:40;3.75;;;0.77;;
51764;SDS011;37835;53.256;6.456;2022-07-22T07:08:05;5.07;;;0.98;;
51764;SDS011;37835;53.256;6.456;2022-07-22T07:10:31;8.32;;;0.95;;
51764;SDS011;37835;53.256;6.456;2022-07-22T07:12:57;4.72;;;0.90;;
51764;SDS011;37835;53.256;6.456;2022-07-22T07:15:27;8.63;;;0.98;;
51764;SDS011;37835;53.256;6.456;2022-07-22T07:17:53;2.08;;;0.80;;
51764;SDS011;37835;53.256;6.456;2022-07-22T07:20:19;5.40;;;0.98;;
51764;SDS011;37835;53.256;6.456;2022-07-22T07:22:45;5.70;;;1.00;;
51764;SDS011;37835;53.256;6.456;2022-07-22T07:25:11;4.07;;;0.80;;
51764;SDS011;37835;53.256;6.456;2022-07-22T07:27:36;5.25;;;1.35;;
51764;SDS011;37835;53.256;6.456;2022-07-22T07:30:03;3.97;;;0.70;;
51764;SDS011;37835;53.256;6.456;2022-07-22T07:32:29;6.43;;;1.13;;
51764;SDS011;37835;53.256;6.456;2022-07-22T07:34:55;2.63;;;0.75;;
51764;SDS011;37835;53.256;6.456;2022-07-22T07:37:21;6.82;;;1.00;;
51764;SDS011;37835;53.256;6.456;2022-07-22T07:39:46;2.88;;;1.08;;
51764;SDS011;37835;53.256;6.456;2022-07-22T07:42:12;3.50;;;0.90;;
51764;SDS011;37835;53.256;6.456;2022-07-22T07:44:38;7.43;;;0.88;;
51764;SDS011;37835;53.256;6.456;2022-07-22T07:47:03;4.80;;;0.80;;
51764;SDS011;37835;53.256;6.456;2022-07-22T07:49:29;5.68;;;0.90;;
51764;SDS011;37835;53.256;6.456;2022-07-22T07:51:54;3.67;;;0.85;;
51764;SDS011;37835;53.256;6.456;2022-07-22T07:54:20;5.07;;;0.85;;
51764;SDS011;37835;53.256;6.456;2022-07-22T07:56:46;5.03;;;1.02;;
51764;SDS011;37835;53.256;6.456;2022-07-22T07:59:12;1.70;;;0.80;;
51764;SDS011;37835;53.256;6.456;2022-07-22T08:01:38;5.57;;;0.65;;
51764;SDS011;37835;53.256;6.456;2022-07-22T08:04:03;2.95;;;0.65;;
51764;SDS011;37835;53.256;6.456;2022-07-22T08:06:29;5.78;;;0.93;;
51764;SDS011;37835;53.256;6.456;2022-07-22T08:08:55;5.20;;;0.98;;
51764;SDS011;37835;53.256;6.456;2022-07-22T08:11:20;4.82;;;0.88;;
51764;SDS011;37835;53.256;6.456;2022-07-22T08:13:46;8.88;;;1.00;;
51764;SDS011;37835;53.256;6.456;2022-07-22T08:16:12;3.75;;;1.08;;
51764;SDS011;37835;53.256;6.456;2022-07-22T08:18:37;10.45;;;1.23;;
51764;SDS011;37835;53.256;6.456;2022-07-22T08:21:03;7.25;;;0.80;;
51764;SDS011;37835;53.256;6.456;2022-07-22T08:23:29;5.50;;;1.10;;
51764;SDS011;37835;53.256;6.456;2022-07-22T08:25:54;4.50;;;0.88;;
51764;SDS011;37835;53.256;6.456;2022-07-22T08:28:20;3.13;;;0.93;;
51764;SDS011;37835;53.256;6.456;2022-07-22T08:30:45;5.88;;;1.08;;
51764;SDS011;37835;53.256;6.456;2022-07-22T08:33:11;4.07;;;1.02;;
51764;SDS011;37835;53.256;6.456;2022-07-22T08:35:37;9.07;;;1.23;;
51764;SDS011;37835;53.256;6.456;2022-07-22T08:38:02;6.93;;;1.05;;
51764;SDS011;37835;53.256;6.456;2022-07-22T08:40:28;9.70;;;0.98;;
51764;SDS011;37835;53.256;6.456;2022-07-22T08:42:54;8.23;;;1.67;;
51764;SDS011;37835;53.256;6.456;2022-07-22T08:45:20;4.85;;;0.80;;
51764;SDS011;37835;53.256;6.456;2022-07-22T08:47:46;3.58;;;0.75;;
51764;SDS011;37835;53.256;6.456;2022-07-22T08:50:13;5.93;;;0.75;;
51764;SDS011;37835;53.256;6.456;2022-07-22T08:52:39;3.97;;;0.52;;
51764;SDS011;37835;53.256;6.456;2022-07-22T08:55:05;5.78;;;0.80;;
51764;SDS011;37835;53.256;6.456;2022-07-22T08:57:33;4.18;;;0.90;;
51764;SDS011;37835;53.256;6.456;2022-07-22T08:59:59;6.72;;;1.35;;
51764;SDS011;37835;53.256;6.456;2022-07-22T09:02:27;4.90;;;0.70;;
51764;SDS011;37835;53.256;6.456;2022-07-22T09:05:03;4.82;;;0.68;;
51764;SDS011;37835;53.256;6.456;2022-07-22T09:10:05;3.08;;;0.68;;
51764;SDS011;37835;53.256;6.456;2022-07-22T09:12:39;2.92;;;0.57;;
51764;SDS011;37835;53.256;6.456;2022-07-22T09:15:24;6.82;;;1.10;;
51764;SDS011;37835;53.256;6.456;2022-07-22T09:17:54;3.60;;;0.65;;
51764;SDS011;37835;53.256;6.456;2022-07-22T09:20:20;4.97;;;0.68;;
51764;SDS011;37835;53.256;6.456;2022-07-22T09:22:47;2.90;;;0.80;;
51764;SDS011;37835;53.256;6.456;2022-07-22T09:25:20;3.58;;;0.63;;
51764;SDS011;37835;53.256;6.456;2022-07-22T09:27:54;6.68;;;0.68;;
51764;SDS011;37835;53.256;6.456;2022-07-22T09:30:39;4.35;;;0.80;;
51764;SDS011;37835;53.256;6.456;2022-07-22T09:33:10;2.17;;;0.50;;
51764;SDS011;37835;53.256;6.456;2022-07-22T09:35:36;2.35;;;0.50;;
51764;SDS011;37835;53.256;6.456;2022-07-22T09:38:07;6.63;;;0.55;;
51764;SDS011;37835;53.256;6.456;2022-07-22T09:40:35;6.63;;;0.75;;
51764;SDS011;37835;53.256;6.456;2022-07-22T09:43:06;1.50;;;0.60;;
51764;SDS011;37835;53.256;6.456;2022-07-22T09:45:43;3.90;;;0.50;;
51764;SDS011;37835;53.256;6.456;2022-07-22T09:48:12;3.28;;;0.40;;
51764;SDS011;37835;53.256;6.456;2022-07-22T09:50:38;2.53;;;0.73;;
51764;SDS011;37835;53.256;6.456;2022-07-22T09:53:04;2.58;;;0.50;;
51764;SDS011;37835;53.256;6.456;2022-07-22T09:55:29;1.52;;;0.40;;
51764;SDS011;37835;53.256;6.456;2022-07-22T09:57:58;1.13;;;0.45;;
51764;SDS011;37835;53.256;6.456;2022-07-22T10:00:25;1.60;;;0.40;;
51764;SDS011;37835;53.256;6.456;2022-07-22T10:02:53;3.33;;;0.55;;
51764;SDS011;37835;53.256;6.456;2022-07-22T10:05:25;3.58;;;0.40;;
51764;SDS011;37835;53.256;6.456;2022-07-22T10:07:52;2.45;;;0.50;;
51764;SDS011;37835;53.256;6.456;2022-07-22T10:10:28;1.25;;;0.25;;
51764;SDS011;37835;53.256;6.456;2022-07-22T10:12:57;3.50;;;0.50;;
51764;SDS011;37835;53.256;6.456;2022-07-22T10:15:24;2.35;;;0.40;;
51764;SDS011;37835;53.256;6.456;2022-07-22T10:17:52;1.20;;;0.30;;
51764;SDS011;37835;53.256;6.456;2022-07-22T10:20:21;2.05;;;0.40;;
51764;SDS011;37835;53.256;6.456;2022-07-22T10:22:53;2.40;;;0.43;;
51764;SDS011;37835;53.256;6.456;2022-07-22T10:25:31;3.47;;;0.60;;
51764;SDS011;37835;53.256;6.456;2022-07-22T10:28:33;2.55;;;0.30;;
51764;SDS011;37835;53.256;6.456;2022-07-22T10:33:54;2.58;;;0.30;;
51764;SDS011;37835;53.256;6.456;2022-07-22T10:36:39;0.98;;;0.30;;
51764;SDS011;37835;53.256;6.456;2022-07-22T10:39:10;7.13;;;0.63;;
51764;SDS011;37835;53.256;6.456;2022-07-22T10:41:40;3.72;;;0.50;;
51764;SDS011;37835;53.256;6.456;2022-07-22T10:44:10;5.32;;;0.38;;
51764;SDS011;37835;53.256;6.456;2022-07-22T10:49:16;3.80;;;0.50;;
51764;SDS011;37835;53.256;6.456;2022-07-22T10:54:31;1.77;;;0.30;;
51764;SDS011;37835;53.256;6.456;2022-07-22T10:56:57;3.08;;;0.57;;
51764;SDS011;37835;53.256;6.456;2022-07-22T10:59:25;1.10;;;0.10;;
51764;SDS011;37835;53.256;6.456;2022-07-22T11:01:51;3.00;;;0.32;;
51764;SDS011;37835;53.256;6.456;2022-07-22T11:04:20;1.15;;;0.50;;
51764;SDS011;37835;53.256;6.456;2022-07-22T11:06:48;2.15;;;0.20;;
51764;SDS011;37835;53.256;6.456;2022-07-22T11:09:16;4.13;;;0.30;;
51764;SDS011;37835;53.256;6.456;2022-07-22T11:14:18;0.60;;;0.10;;
51764;SDS011;37835;53.256;6.456;2022-07-22T11:17:19;1.58;;;0.30;;
51764;SDS011;37835;53.256;6.456;2022-07-22T11:19:50;1.83;;;0.40;;
51764;SDS011;37835;53.256;6.456;2022-07-22T11:22:16;3.33;;;0.30;;
51764;SDS011;37835;53.256;6.456;2022-07-22T11:24:42;1.05;;;0.10;;
51764;SDS011;37835;53.256;6.456;2022-07-22T11:27:17;2.83;;;0.30;;
51764;SDS011;37835;53.256;6.456;2022-07-22T11:29:47;4.15;;;0.30;;
51764;SDS011;37835;53.256;6.456;2022-07-22T11:32:13;2.97;;;0.32;;
51764;SDS011;37835;53.256;6.456;2022-07-22T11:34:40;2.28;;;0.30;;
51764;SDS011;37835;53.256;6.456;2022-07-22T11:37:12;4.78;;;0.20;;
51764;SDS011;37835;53.256;6.456;2022-07-22T11:39:48;3.78;;;0.50;;
51764;SDS011;37835;53.256;6.456;2022-07-22T11:42:14;2.10;;;0.17;;
51764;SDS011;37835;53.256;6.456;2022-07-22T11:44:40;2.17;;;0.40;;
51764;SDS011;37835;53.256;6.456;2022-07-22T11:47:06;5.00;;;0.30;;
51764;SDS011;37835;53.256;6.456;2022-07-22T11:49:33;1.02;;;0.20;;
51764;SDS011;37835;53.256;6.456;2022-07-22T11:52:02;1.08;;;0.20;;
51764;SDS011;37835;53.256;6.456;2022-07-22T11:54:32;0.90;;;0.20;;
51764;SDS011;37835;53.256;6.456;2022-07-22T11:56:58;1.95;;;0.20;;
51764;SDS011;37835;53.256;6.456;2022-07-22T11:59:25;3.55;;;0.30;;
51764;SDS011;37835;53.256;6.456;2022-07-22T12:01:50;1.95;;;0.30;;
51764;SDS011;37835;53.256;6.456;2022-07-22T12:04:24;2.00;;;0.10;;
51764;SDS011;37835;53.256;6.456;2022-07-22T12:06:52;1.95;;;0.10;;
51764;SDS011;37835;53.256;6.456;2022-07-22T12:11:49;0.88;;;0.20;;
51764;SDS011;37835;53.256;6.456;2022-07-22T12:14:18;0.50;;;0.20;;
51764;SDS011;37835;53.256;6.456;2022-07-22T12:16:58;0.20;;;0.10;;
51764;SDS011;37835;53.256;6.456;2022-07-22T12:19:27;1.85;;;0.25;;
51764;SDS011;37835;53.256;6.456;2022-07-22T12:21:55;2.15;;;0.10;;
51764;SDS011;37835;53.256;6.456;2022-07-22T12:24:27;0.40;;;0.13;;
51764;SDS011;37835;53.256;6.456;2022-07-22T12:27:04;0.95;;;0.10;;
51764;SDS011;37835;53.256;6.456;2022-07-22T12:32:46;1.67;;;0.25;;
51764;SDS011;37835;53.256;6.456;2022-07-22T12:37:28;1.27;;;0.30;;
51764;SDS011;37835;53.256;6.456;2022-07-22T12:40:04;1.63;;;0.30;;
51764;SDS011;37835;53.256;6.456;2022-07-22T12:42:32;1.13;;;0.47;;
51764;SDS011;37835;53.256;6.456;2022-07-22T12:45:10;1.80;;;0.75;;
51764;SDS011;37835;53.256;6.456;2022-07-22T12:50:43;3.42;;;0.40;;
51764;SDS011;37835;53.256;6.456;2022-07-22T12:53:23;7.20;;;0.60;;
51764;SDS011;37835;53.256;6.456;2022-07-22T12:55:50;6.18;;;0.77;;
51764;SDS011;37835;53.256;6.456;2022-07-22T12:58:23;2.03;;;0.60;;
51764;SDS011;37835;53.256;6.456;2022-07-22T13:00:53;2.60;;;0.60;;
51764;SDS011;37835;53.256;6.456;2022-07-22T13:03:21;6.65;;;0.63;;
51764;SDS011;37835;53.256;6.456;2022-07-22T13:05:53;3.40;;;0.60;;
51764;SDS011;37835;53.256;6.456;2022-07-22T13:08:20;3.13;;;0.52;;
51764;SDS011;37835;53.256;6.456;2022-07-22T13:10:46;2.60;;;0.60;;
51764;SDS011;37835;53.256;6.456;2022-07-22T13:13:12;5.28;;;0.50;;
51764;SDS011;37835;53.256;6.456;2022-07-22T13:15:38;4.15;;;0.50;;
51764;SDS011;37835;53.256;6.456;2022-07-22T13:18:04;3.25;;;0.60;;
51764;SDS011;37835;53.256;6.456;2022-07-22T13:20:30;2.95;;;0.70;;
51764;SDS011;37835;53.256;6.456;2022-07-22T13:22:56;4.03;;;0.88;;
51764;SDS011;37835;53.256;6.456;2022-07-22T13:25:21;3.05;;;0.63;;
51764;SDS011;37835;53.256;6.456;2022-07-22T13:27:47;2.35;;;0.50;;
51764;SDS011;37835;53.256;6.456;2022-07-22T13:30:13;6.38;;;0.60;;
51764;SDS011;37835;53.256;6.456;2022-07-22T13:32:38;2.75;;;0.63;;
51764;SDS011;37835;53.256;6.456;2022-07-22T13:35:06;4.80;;;0.77;;
51764;SDS011;37835;53.256;6.456;2022-07-22T13:37:34;2.25;;;0.68;;
51764;SDS011;37835;53.256;6.456;2022-07-22T13:40:00;3.03;;;0.68;;
51764;SDS011;37835;53.256;6.456;2022-07-22T13:42:26;2.65;;;0.82;;
51764;SDS011;37835;53.256;6.456;2022-07-22T13:44:51;4.10;;;1.02;;
51764;SDS011;37835;53.256;6.456;2022-07-22T13:47:19;3.55;;;0.50;;
51764;SDS011;37835;53.256;6.456;2022-07-22T13:49:46;1.77;;;0.70;;
51764;SDS011;37835;53.256;6.456;2022-07-22T13:52:12;2.15;;;0.60;;
51764;SDS011;37835;53.256;6.456;2022-07-22T13:54:38;1.27;;;0.50;;
51764;SDS011;37835;53.256;6.456;2022-07-22T13:57:04;6.40;;;0.60;;
51764;SDS011;37835;53.256;6.456;2022-07-22T13:59:31;6.72;;;1.17;;
51764;SDS011;37835;53.256;6.456;2022-07-22T14:01:57;0.73;;;0.30;;
51764;SDS011;37835;53.256;6.456;2022-07-22T14:04:24;2.30;;;0.30;;
51764;SDS011;37835;53.256;6.456;2022-07-22T14:06:50;2.78;;;0.35;;
51764;SDS011;37835;53.256;6.456;2022-07-22T14:09:16;4.68;;;0.68;;
51764;SDS011;37835;53.256;6.456;2022-07-22T14:11:42;3.35;;;0.50;;
51764;SDS011;37835;53.256;6.456;2022-07-22T14:14:07;2.10;;;0.40;;
51764;SDS011;37835;53.256;6.456;2022-07-22T14:16:34;1.27;;;0.35;;
51764;SDS011;37835;53.256;6.456;2022-07-22T14:19:13;2.67;;;0.40;;
51764;SDS011;37835;53.256;6.456;2022-07-22T14:21:42;3.10;;;0.50;;
51764;SDS011;37835;53.256;6.456;2022-07-22T14:24:10;4.00;;;0.50;;
51764;SDS011;37835;53.256;6.456;2022-07-22T14:26:37;1.60;;;0.32;;
51764;SDS011;37835;53.256;6.456;2022-07-22T14:29:03;2.85;;;0.38;;
51764;SDS011;37835;53.256;6.456;2022-07-22T14:31:31;4.03;;;0.60;;
51764;SDS011;37835;53.256;6.456;2022-07-22T14:33:57;1.75;;;0.43;;
51764;SDS011;37835;53.256;6.456;2022-07-22T14:36:23;9.27;;;1.23;;
51764;SDS011;37835;53.256;6.456;2022-07-22T14:38:48;4.55;;;0.43;;
51764;SDS011;37835;53.256;6.456;2022-07-22T14:41:18;2.42;;;0.70;;
51764;SDS011;37835;53.256;6.456;2022-07-22T14:43:44;1.92;;;0.50;;
51764;SDS011;37835;53.256;6.456;2022-07-22T14:46:10;2.88;;;0.55;;
51764;SDS011;37835;53.256;6.456;2022-07-22T14:48:39;6.07;;;0.82;;
51764;SDS011;37835;53.256;6.456;2022-07-22T14:51:06;2.60;;;0.52;;
51764;SDS011;37835;53.256;6.456;2022-07-22T14:53:32;2.45;;;0.55;;
51764;SDS011;37835;53.256;6.456;2022-07-22T14:55:58;5.72;;;0.80;;
51764;SDS011;37835;53.256;6.456;2022-07-22T14:58:23;2.42;;;0.82;;
51764;SDS011;37835;53.256;6.456;2022-07-22T15:00:49;1.80;;;0.40;;
51764;SDS011;37835;53.256;6.456;2022-07-22T15:03:15;1.52;;;0.50;;
51764;SDS011;37835;53.256;6.456;2022-07-22T15:05:41;1.83;;;0.40;;
51764;SDS011;37835;53.256;6.456;2022-07-22T15:08:07;4.38;;;0.40;;